Time;durP1;ratioP1;P1;durP2;ratioP2;P2;SDS_P1;SDS_P2;PMS_P1;PMS_P2;Temp;Humidity;BMP_temperature;BMP_pressure;BME280_temperature;BME280_humidity;BME280_pressure;Samples;Min_cycle;Max_cycle;Signal;HPM_P1;HPM_P2
2023/01/28 00:01:07;;;;;;;8.23;5.90;;;3.80;99.90;;;;;;5014913;28;20463;-76
2023/01/28 00:03:32;;;;;;;8.73;5.97;;;4.00;99.90;;;;;;5022714;28;20252;-75
2023/01/28 00:06:02;;;;;;;7.13;6.30;;;4.10;99.90;;;;;;5031528;28;20547;-76
2023/01/28 00:08:29;;;;;;;6.73;6.03;;;3.90;99.90;;;;;;5025021;28;20185;-76
2023/01/28 00:10:58;;;;;;;9.43;7.27;;;4.20;99.90;;;;;;5019394;28;20425;-75
2023/01/28 00:13:24;;;;;;;7.43;6.73;;;4.00;99.90;;;;;;4999157;28;20460;-75
2023/01/28 00:15:57;;;;;;;7.10;6.40;;;3.80;99.90;;;;;;5033657;28;20422;-75
2023/01/28 00:18:24;;;;;;;6.83;6.20;;;3.90;99.90;;;;;;5020022;28;20185;-76
2023/01/28 00:21:00;;;;;;;7.73;7.03;;;3.80;99.90;;;;;;5024831;28;20430;-76
2023/01/28 00:23:31;;;;;;;7.90;7.20;;;4.10;99.90;;;;;;5020355;28;20439;-76
2023/01/28 00:26:02;;;;;;;7.23;6.53;;;3.90;99.90;;;;;;5039678;28;20992;-76
2023/01/28 00:28:27;;;;;;;7.27;6.57;;;3.80;99.90;;;;;;5038998;28;20522;-75
2023/01/28 00:30:53;;;;;;;8.97;8.07;;;3.80;99.90;;;;;;5046898;28;20862;-76
2023/01/28 00:33:19;;;;;;;7.97;7.27;;;3.90;99.90;;;;;;5037649;28;20206;-76
2023/01/28 00:35:45;;;;;;;7.37;6.57;;;3.80;99.90;;;;;;5044815;28;20824;-75
2023/01/28 00:38:11;;;;;;;8.20;7.40;;;3.90;99.90;;;;;;5028432;28;20266;-77
2023/01/28 00:40:36;;;;;;;7.90;7.10;;;4.10;99.90;;;;;;5036666;28;20976;-76
2023/01/28 00:43:02;;;;;;;8.20;7.50;;;3.90;99.90;;;;;;5025536;28;20453;-75
2023/01/28 00:45:28;;;;;;;8.63;7.83;;;4.00;99.90;;;;;;5012926;28;20293;-75
2023/01/28 00:47:53;;;;;;;8.23;7.43;;;3.70;99.90;;;;;;5012991;28;20274;-76
2023/01/28 00:50:20;;;;;;;8.40;7.57;;;3.80;99.90;;;;;;5027923;28;20731;-75
2023/01/28 00:52:46;;;;;;;8.37;7.43;;;3.80;99.90;;;;;;5019716;28;20199;-76
2023/01/28 00:55:13;;;;;;;8.73;7.50;;;3.70;99.90;;;;;;5032140;28;20434;-76
2023/01/28 00:57:38;;;;;;;8.97;8.07;;;4.00;99.90;;;;;;5030651;28;20861;-76
2023/01/28 01:00:05;;;;;;;8.73;7.93;;;3.90;99.90;;;;;;5040478;28;20500;-76
2023/01/28 01:02:31;;;;;;;8.07;7.27;;;3.80;99.90;;;;;;5032625;28;20197;-75
2023/01/28 01:04:57;;;;;;;8.73;7.90;;;3.80;99.90;;;;;;5039935;28;20810;-76
2023/01/28 01:07:33;;;;;;;8.20;7.40;;;3.90;99.90;;;;;;5041571;28;20409;-75
2023/01/28 01:10:00;;;;;;;9.00;8.10;;;3.80;99.90;;;;;;5038297;28;20257;-76
2023/01/28 01:12:27;;;;;;;10.47;8.87;;;3.80;99.90;;;;;;5040757;28;20811;-76
2023/01/28 01:14:52;;;;;;;9.87;8.80;;;4.00;99.90;;;;;;5043657;28;20550;-76
2023/01/28 01:17:20;;;;;;;8.80;7.90;;;3.80;99.90;;;;;;5026678;28;20536;-75
2023/01/28 01:19:45;;;;;;;9.53;8.47;;;3.80;99.90;;;;;;5031711;28;20288;-75
2023/01/28 01:22:11;;;;;;;10.40;9.00;;;3.80;99.90;;;;;;5014896;28;20504;-77
2023/01/28 01:24:36;;;;;;;8.50;7.60;;;4.00;99.90;;;;;;5037575;28;20352;-76
2023/01/28 01:27:04;;;;;;;9.47;8.57;;;3.90;99.90;;;;;;5020351;28;20210;-75
2023/01/28 01:29:32;;;;;;;9.33;8.37;;;3.80;99.90;;;;;;5026470;28;20254;-75
2023/01/28 01:31:57;;;;;;;8.87;7.97;;;3.70;99.90;;;;;;5026909;28;20421;-76
2023/01/28 01:34:23;;;;;;;9.40;8.40;;;3.80;99.90;;;;;;5035503;28;20443;-75
2023/01/28 01:36:48;;;;;;;10.67;9.00;;;3.70;99.90;;;;;;5041617;28;20186;-75
2023/01/28 01:39:14;;;;;;;10.23;9.23;;;3.70;99.90;;;;;;5028939;28;20189;-76
2023/01/28 01:41:40;;;;;;;10.50;8.80;;;3.80;99.90;;;;;;5035425;28;20558;-76
2023/01/28 01:44:06;;;;;;;10.47;9.37;;;3.70;99.90;;;;;;5046351;28;20678;-75
2023/01/28 01:46:51;;;;;;;10.20;9.20;;;3.80;99.90;;;;;;5040143;28;20236;-76
2023/01/28 01:49:23;;;;;;;11.30;9.93;;;3.80;99.90;;;;;;5026560;28;20412;-76
2023/01/28 01:51:59;;;;;;;10.43;9.43;;;3.60;99.90;;;;;;5023858;28;20449;-75
2023/01/28 01:54:29;;;;;;;12.37;10.00;;;3.50;99.90;;;;;;5024086;28;20929;-76
2023/01/28 01:56:55;;;;;;;11.80;9.70;;;3.70;99.90;;;;;;5034280;28;20758;-74
2023/01/28 01:59:30;;;;;;;11.23;9.53;;;3.80;99.90;;;;;;5029517;28;20483;-74
2023/01/28 02:01:59;;;;;;;13.00;10.20;;;3.70;99.90;;;;;;5030022;28;20177;-74
2023/01/28 02:04:30;;;;;;;11.60;10.40;;;3.50;99.90;;;;;;5027785;28;20540;-75
2023/01/28 02:06:59;;;;;;;10.67;9.53;;;3.60;99.90;;;;;;5020487;28;20956;-74
2023/01/28 02:09:28;;;;;;;10.30;9.30;;;3.60;99.90;;;;;;5027304;28;20621;-75
2023/01/28 02:11:57;;;;;;;12.23;10.37;;;3.50;99.90;;;;;;5024610;28;20807;-75
2023/01/28 02:14:27;;;;;;;12.40;10.20;;;3.60;99.90;;;;;;5030825;28;20433;-74
2023/01/28 02:16:53;;;;;;;11.73;9.50;;;3.50;99.90;;;;;;5029286;28;20455;-75
2023/01/28 02:19:21;;;;;;;11.17;9.30;;;3.50;99.90;;;;;;5028777;28;20469;-75
2023/01/28 02:22:01;;;;;;;14.80;10.03;;;3.60;99.90;;;;;;5029070;28;20432;-75
2023/01/28 02:24:45;;;;;;;10.07;9.03;;;3.40;99.90;;;;;;5022004;28;21115;-74
2023/01/28 02:27:39;;;;;;;11.03;9.53;;;3.50;99.90;;;;;;5017455;28;20471;-75
2023/01/28 02:30:15;;;;;;;11.10;8.17;;;3.40;99.90;;;;;;4979607;28;20785;-74
2023/01/28 02:32:58;;;;;;;10.23;9.13;;;3.30;99.90;;;;;;5017647;28;20432;-74
2023/01/28 02:35:38;;;;;;;10.03;8.07;;;3.30;99.90;;;;;;5023785;28;20855;-75
2023/01/28 02:38:27;;;;;;;10.97;9.10;;;3.30;99.90;;;;;;5027004;28;20420;-74
2023/01/28 02:41:04;;;;;;;10.20;8.40;;;3.20;99.90;;;;;;5039082;28;20424;-74
2023/01/28 02:43:35;;;;;;;10.90;8.10;;;3.50;99.90;;;;;;5039356;28;20455;-75
2023/01/28 02:48:56;;;;;;;10.87;8.00;;;3.20;99.90;;;;;;5021206;28;20509;-74
2023/01/28 02:51:59;;;;;;;9.50;7.40;;;3.30;99.90;;;;;;5016822;28;20499;-75
2023/01/28 02:54:36;;;;;;;9.90;7.37;;;3.20;99.90;;;;;;5028632;28;20445;-74
2023/01/28 02:57:16;;;;;;;7.47;6.67;;;3.30;99.90;;;;;;5028932;28;20878;-75
2023/01/28 02:59:55;;;;;;;8.50;7.60;;;3.30;99.90;;;;;;5011324;28;20455;-74
2023/01/28 03:02:43;;;;;;;6.50;5.90;;;3.20;99.90;;;;;;5011391;28;20447;-74
2023/01/28 03:05:33;;;;;;;8.80;6.70;;;3.30;99.90;;;;;;5028781;28;20776;-75
2023/01/28 03:07:59;;;;;;;6.90;5.73;;;3.20;99.90;;;;;;5028887;28;20445;-75
2023/01/28 03:10:27;;;;;;;7.37;6.67;;;3.20;99.90;;;;;;5029012;28;20405;-75
2023/01/28 03:38:41;;;;;;;7.10;6.10;;;3.30;99.90;;;;;;5032489;28;20409;-75
2023/01/28 03:41:10;;;;;;;11.60;9.43;;;3.30;99.90;;;;;;5032772;28;20955;-76
2023/01/28 03:43:36;;;;;;;10.20;9.10;;;3.40;99.90;;;;;;5032673;28;20443;-75
2023/01/28 03:46:05;;;;;;;10.63;9.10;;;3.40;99.90;;;;;;5032751;28;20453;-76
2023/01/28 03:48:31;;;;;;;9.93;8.57;;;3.30;99.90;;;;;;5032538;28;20456;-75
2023/01/28 03:50:59;;;;;;;8.20;7.37;;;3.20;99.90;;;;;;5014763;28;20428;-76
2023/01/28 03:53:25;;;;;;;9.30;7.60;;;3.00;99.90;;;;;;5014814;28;20440;-75
2023/01/28 03:55:52;;;;;;;9.63;7.20;;;3.10;99.90;;;;;;5014734;28;20412;-75
2023/01/28 03:58:19;;;;;;;8.73;7.33;;;3.10;99.90;;;;;;5032378;28;20428;-75
2023/01/28 04:00:44;;;;;;;9.30;8.40;;;3.10;99.90;;;;;;5029642;28;20499;-75
2023/01/28 04:03:15;;;;;;;9.43;8.20;;;3.10;99.90;;;;;;5036412;28;20466;-75
2023/01/28 04:05:59;;;;;;;10.90;7.53;;;2.90;99.90;;;;;;5032550;28;20468;-75
2023/01/28 04:08:25;;;;;;;12.13;9.50;;;3.20;99.90;;;;;;5006630;28;20416;-75
2023/01/28 04:10:51;;;;;;;12.70;8.80;;;3.10;99.90;;;;;;5043864;28;20797;-75
2023/01/28 04:13:19;;;;;;;11.40;8.30;;;3.30;99.90;;;;;;5042020;28;20289;-75
2023/01/28 04:15:46;;;;;;;11.07;8.70;;;3.30;99.90;;;;;;5007879;28;20187;-75
2023/01/28 04:18:12;;;;;;;15.33;10.20;;;3.20;99.90;;;;;;5040770;28;20542;-76
2023/01/28 04:20:38;;;;;;;10.80;9.33;;;3.00;99.90;;;;;;5043534;28;20968;-75
2023/01/28 04:23:06;;;;;;;14.23;9.90;;;3.30;99.90;;;;;;5040293;28;20272;-75
2023/01/28 04:25:32;;;;;;;12.47;9.50;;;3.30;99.90;;;;;;5031922;28;20563;-75
2023/01/28 04:27:58;;;;;;;11.83;9.00;;;3.00;99.90;;;;;;5014360;28;20508;-76
2023/01/28 04:30:24;;;;;;;13.60;9.60;;;3.20;99.90;;;;;;5032311;28;20417;-76
2023/01/28 04:32:50;;;;;;;13.73;10.70;;;3.10;99.90;;;;;;5032015;28;20467;-74
2023/01/28 04:35:16;;;;;;;10.27;8.73;;;3.10;99.90;;;;;;5032031;28;20471;-76
2023/01/28 04:37:42;;;;;;;10.60;8.90;;;3.00;99.90;;;;;;5032138;28;20181;-75
2023/01/28 04:40:09;;;;;;;11.63;9.73;;;3.00;99.90;;;;;;5031930;28;20945;-75
2023/01/28 04:42:35;;;;;;;11.13;8.97;;;3.00;99.90;;;;;;5031845;28;20432;-76
2023/01/28 04:45:01;;;;;;;9.97;8.70;;;3.30;99.90;;;;;;5014086;28;20453;-75
2023/01/28 04:47:26;;;;;;;12.17;9.00;;;3.10;99.90;;;;;;5031840;28;20179;-75
2023/01/28 04:49:52;;;;;;;11.00;8.77;;;3.10;99.90;;;;;;5031592;28;20171;-75
2023/01/28 04:52:18;;;;;;;12.10;10.30;;;3.10;99.90;;;;;;4997799;28;20680;-75
2023/01/28 04:54:43;;;;;;;11.63;9.70;;;3.10;99.90;;;;;;5031453;28;20229;-75
2023/01/28 04:57:09;;;;;;;12.60;10.33;;;2.90;99.90;;;;;;5031726;28;20181;-75
2023/01/28 04:59:35;;;;;;;14.87;11.03;;;3.00;99.90;;;;;;5031610;28;20186;-75
2023/01/28 05:02:00;;;;;;;15.10;11.53;;;3.20;99.90;;;;;;5031959;28;20174;-75
2023/01/28 05:04:26;;;;;;;19.47;12.53;;;3.10;99.90;;;;;;5042400;23;20229;-79
2023/01/28 05:06:51;;;;;;;16.07;12.10;;;3.00;99.90;;;;;;5025703;28;20613;-79
2023/01/28 05:09:17;;;;;;;14.80;11.70;;;3.10;99.90;;;;;;5049064;28;20648;-79
2023/01/28 05:11:43;;;;;;;15.73;12.17;;;3.00;99.90;;;;;;5033066;28;20170;-79
2023/01/28 05:14:08;;;;;;;16.50;11.30;;;3.10;99.90;;;;;;5049724;28;20194;-79
2023/01/28 05:16:34;;;;;;;13.27;10.80;;;2.90;99.90;;;;;;5019026;28;20197;-79
2023/01/28 05:19:01;;;;;;;14.50;11.67;;;3.00;99.90;;;;;;5052794;28;20197;-79
2023/01/28 05:21:27;;;;;;;13.80;10.40;;;3.10;99.90;;;;;;5021330;28;20590;-79
2023/01/28 05:23:52;;;;;;;13.10;11.17;;;3.00;99.90;;;;;;5032691;28;20445;-79
2023/01/28 05:26:18;;;;;;;15.53;12.10;;;3.00;99.90;;;;;;5033297;28;20469;-79
2023/01/28 05:28:44;;;;;;;14.57;11.50;;;3.10;99.90;;;;;;5029397;28;20224;-78
2023/01/28 05:31:10;;;;;;;15.47;10.60;;;2.90;99.90;;;;;;5052947;28;20194;-78
2023/01/28 05:33:36;;;;;;;13.50;10.07;;;3.00;99.90;;;;;;5052405;28;20276;-79
2023/01/28 05:36:02;;;;;;;14.77;10.80;;;3.20;99.90;;;;;;5052951;28;20862;-79
2023/01/28 05:38:28;;;;;;;15.10;11.93;;;3.00;99.90;;;;;;5049366;28;20582;-79
2023/01/28 05:40:53;;;;;;;15.23;11.80;;;2.90;99.90;;;;;;5032815;28;20759;-79
2023/01/28 05:43:19;;;;;;;17.30;12.27;;;2.80;99.90;;;;;;5033191;28;20203;-79
2023/01/28 05:45:46;;;;;;;17.17;12.60;;;3.00;99.90;;;;;;4998417;28;20612;-79
2023/01/28 05:48:13;;;;;;;14.40;11.77;;;2.90;99.90;;;;;;5014933;28;20179;-79
2023/01/28 05:50:38;;;;;;;16.57;12.00;;;2.90;99.90;;;;;;5032266;28;20910;-78
2023/01/28 05:53:05;;;;;;;14.30;11.17;;;3.00;99.90;;;;;;5015036;28;20487;-78
2023/01/28 05:55:31;;;;;;;14.20;11.43;;;2.80;99.90;;;;;;5031795;28;20252;-79
2023/01/28 05:57:57;;;;;;;13.43;10.90;;;2.90;99.90;;;;;;5032959;28;20897;-79
2023/01/28 06:00:23;;;;;;;14.30;10.57;;;2.80;99.90;;;;;;5014836;28;20467;-79
2023/01/28 06:02:51;;;;;;;14.07;11.93;;;2.90;99.90;;;;;;5032679;28;20178;-79
2023/01/28 06:05:17;;;;;;;15.70;11.77;;;2.80;99.90;;;;;;5014743;28;20736;-79
2023/01/28 06:07:46;;;;;;;15.17;12.10;;;2.80;99.90;;;;;;5032678;28;20504;-79
2023/01/28 06:10:13;;;;;;;17.83;11.63;;;2.70;99.90;;;;;;5032406;28;20504;-79
2023/01/28 06:12:39;;;;;;;15.73;11.50;;;3.00;99.90;;;;;;5015475;28;20421;-79
2023/01/28 06:15:05;;;;;;;15.50;11.90;;;2.90;99.90;;;;;;5032164;28;21043;-80
2023/01/28 06:17:31;;;;;;;18.03;12.43;;;3.00;99.90;;;;;;5032612;28;20410;-79
2023/01/28 06:19:57;;;;;;;15.23;12.30;;;3.00;99.90;;;;;;5014691;28;20414;-80
2023/01/28 06:22:22;;;;;;;13.90;11.07;;;3.00;99.90;;;;;;5032852;28;20178;-79
2023/01/28 06:24:48;;;;;;;17.57;12.43;;;3.00;99.90;;;;;;5014472;28;20206;-79
2023/01/28 06:27:13;;;;;;;13.33;11.20;;;2.90;99.90;;;;;;5015365;28;20545;-79
2023/01/28 06:29:39;;;;;;;13.90;11.27;;;2.90;99.90;;;;;;5033255;28;20301;-80
2023/01/28 06:32:05;;;;;;;14.03;10.37;;;2.90;99.90;;;;;;5034113;28;20179;-78
2023/01/28 06:34:30;;;;;;;12.70;10.57;;;2.90;99.90;;;;;;5016760;28;20226;-79
2023/01/28 06:36:56;;;;;;;15.17;11.27;;;2.90;99.90;;;;;;5037028;28;20190;-79
2023/01/28 06:39:22;;;;;;;13.00;10.83;;;2.90;99.90;;;;;;5027169;28;20174;-79
2023/01/28 06:41:48;;;;;;;11.27;9.73;;;2.90;99.90;;;;;;5038767;28;20261;-79
2023/01/28 06:44:14;;;;;;;13.23;10.40;;;2.90;99.90;;;;;;5041582;28;20707;-79
2023/01/28 06:46:40;;;;;;;12.73;10.30;;;2.90;99.90;;;;;;5032660;28;20507;-79
2023/01/28 06:49:06;;;;;;;15.20;11.03;;;2.80;99.90;;;;;;5040534;28;20449;-79
2023/01/28 06:51:32;;;;;;;12.53;10.00;;;2.90;99.90;;;;;;5032743;28;20211;-79
2023/01/28 06:53:57;;;;;;;12.90;10.10;;;2.90;99.90;;;;;;5039943;28;20206;-79
2023/01/28 06:56:23;;;;;;;16.60;11.43;;;2.90;99.90;;;;;;5043214;28;20185;-79
2023/01/28 06:58:49;;;;;;;13.77;10.83;;;2.80;99.90;;;;;;5042428;28;20638;-79
2023/01/28 07:01:15;;;;;;;14.30;10.77;;;2.80;99.90;;;;;;5041732;28;20208;-80
2023/01/28 07:03:40;;;;;;;13.10;10.63;;;2.80;99.90;;;;;;5048092;28;20464;-79
2023/01/28 07:06:06;;;;;;;13.37;10.00;;;2.80;99.90;;;;;;5033871;28;20205;-79
2023/01/28 07:08:32;;;;;;;13.50;11.20;;;2.80;99.90;;;;;;5051464;28;20248;-79
2023/01/28 07:10:58;;;;;;;14.30;10.70;;;2.90;99.90;;;;;;5036802;28;20201;-79
2023/01/28 07:13:23;;;;;;;13.47;11.33;;;2.80;99.90;;;;;;5031783;28;20194;-79
2023/01/28 07:15:49;;;;;;;13.60;10.67;;;2.80;99.90;;;;;;5014364;28;20466;-79
2023/01/28 07:18:15;;;;;;;14.83;9.83;;;2.90;99.90;;;;;;5032516;28;20493;-79
2023/01/28 07:20:41;;;;;;;12.57;10.07;;;2.80;99.90;;;;;;5032382;28;20190;-79
2023/01/28 07:23:06;;;;;;;13.23;11.10;;;2.90;99.90;;;;;;5032682;28;20198;-79
2023/01/28 07:25:32;;;;;;;16.03;12.30;;;2.90;99.90;;;;;;5031968;28;20460;-79
2023/01/28 07:27:58;;;;;;;17.50;12.70;;;2.70;99.90;;;;;;5032261;28;20249;-79
2023/01/28 07:30:23;;;;;;;22.60;15.57;;;2.70;99.90;;;;;;5014429;28;20395;-79
2023/01/28 07:32:57;;;;;;;19.73;14.77;;;2.80;99.90;;;;;;5014423;28;20179;-79
2023/01/28 07:35:24;;;;;;;17.43;13.23;;;2.80;99.90;;;;;;5014091;28;20186;-79
2023/01/28 07:37:53;;;;;;;16.07;12.67;;;2.90;99.90;;;;;;5014224;28;20444;-79
2023/01/28 07:40:19;;;;;;;23.17;16.13;;;2.70;99.90;;;;;;5031426;28;20787;-79
2023/01/28 07:42:45;;;;;;;22.30;15.83;;;2.80;99.90;;;;;;5013767;28;20837;-79
2023/01/28 07:45:10;;;;;;;21.77;15.40;;;2.70;99.90;;;;;;4997222;28;20461;-79
2023/01/28 07:47:36;;;;;;;23.20;16.07;;;2.90;99.90;;;;;;5013536;28;20265;-79
2023/01/28 07:50:02;;;;;;;22.30;15.40;;;2.90;99.90;;;;;;5014035;28;20187;-78
2023/01/28 07:52:28;;;;;;;20.17;15.20;;;2.80;99.90;;;;;;5031869;28;20173;-79
2023/01/28 07:54:53;;;;;;;24.53;16.13;;;2.90;99.90;;;;;;5034463;28;20437;-80
2023/01/28 07:57:22;;;;;;;19.83;13.93;;;2.80;99.90;;;;;;5041572;28;20196;-79
2023/01/28 07:59:51;;;;;;;19.53;14.13;;;2.80;99.90;;;;;;5023523;28;20178;-79
2023/01/28 08:02:17;;;;;;;22.53;15.00;;;2.70;99.90;;;;;;5041235;28;20447;-79
2023/01/28 08:04:43;;;;;;;20.50;15.40;;;2.80;99.90;;;;;;5022913;28;20907;-79
2023/01/28 08:07:09;;;;;;;18.07;13.83;;;3.00;99.90;;;;;;5007811;28;20492;-79
2023/01/28 08:09:35;;;;;;;18.83;14.77;;;2.70;99.90;;;;;;5040145;28;20421;-79
2023/01/28 08:12:01;;;;;;;18.43;13.00;;;2.70;99.90;;;;;;5020366;28;20413;-78
2023/01/28 08:14:27;;;;;;;18.53;13.97;;;2.70;99.90;;;;;;5029510;28;20194;-78
2023/01/28 08:16:53;;;;;;;19.50;14.50;;;2.90;99.90;;;;;;5030047;28;20794;-79
2023/01/28 08:19:20;;;;;;;21.10;15.87;;;2.80;99.90;;;;;;5033587;28;20428;-78
2023/01/28 08:21:49;;;;;;;20.03;14.13;;;2.90;99.90;;;;;;5016781;28;20229;-78
2023/01/28 08:24:16;;;;;;;18.60;13.40;;;2.70;99.90;;;;;;5000540;28;21027;-79
2023/01/28 08:26:42;;;;;;;19.23;14.20;;;2.70;99.90;;;;;;5034998;28;20886;-79
2023/01/28 08:29:08;;;;;;;22.20;14.77;;;2.80;99.90;;;;;;5000662;28;20471;-79
2023/01/28 08:31:34;;;;;;;20.97;14.87;;;2.70;99.90;;;;;;5016460;28;20808;-78
2023/01/28 08:33:59;;;;;;;19.07;13.93;;;2.80;99.90;;;;;;5035125;28;20445;-79
2023/01/28 08:36:25;;;;;;;17.20;13.00;;;2.70;99.90;;;;;;5017578;28;20451;-79
2023/01/28 08:38:54;;;;;;;19.53;13.40;;;2.80;99.90;;;;;;5035203;28;20178;-79
2023/01/28 08:41:21;;;;;;;16.80;12.50;;;2.90;99.90;;;;;;5035091;28;20774;-79
2023/01/28 08:43:47;;;;;;;18.63;13.60;;;2.80;99.90;;;;;;5034770;28;20476;-79
2023/01/28 08:46:13;;;;;;;19.10;13.67;;;3.00;99.90;;;;;;5024206;28;21006;-79
2023/01/28 08:48:38;;;;;;;15.10;12.53;;;2.90;99.90;;;;;;5025118;28;20427;-79
2023/01/28 08:51:04;;;;;;;20.83;14.20;;;2.80;99.90;;;;;;5033427;28;20214;-79
2023/01/28 08:53:30;;;;;;;20.10;14.80;;;2.90;99.90;;;;;;5006934;28;20199;-78
2023/01/28 08:55:55;;;;;;;22.23;15.27;;;2.80;99.90;;;;;;5033740;28;20190;-79
2023/01/28 08:58:21;;;;;;;21.13;15.40;;;3.00;99.90;;;;;;5016470;28;20192;-79
2023/01/28 09:00:47;;;;;;;21.53;15.07;;;2.90;99.90;;;;;;5034379;28;20196;-79
2023/01/28 09:03:13;;;;;;;21.67;15.83;;;2.90;99.90;;;;;;4999041;28;20238;-79
2023/01/28 09:05:39;;;;;;;22.57;16.40;;;2.80;99.90;;;;;;5015209;28;20832;-79
2023/01/28 09:08:13;;;;;;;20.07;15.07;;;2.90;99.90;;;;;;5014980;28;20270;-79
2023/01/28 09:10:40;;;;;;;21.43;15.40;;;2.90;99.90;;;;;;4990665;28;20550;-79
2023/01/28 09:13:12;;;;;;;18.97;14.53;;;2.80;99.90;;;;;;5015928;28;20467;-79
2023/01/28 09:15:38;;;;;;;22.60;13.13;;;2.80;99.90;;;;;;5020960;28;20452;-79
2023/01/28 09:18:05;;;;;;;19.47;14.30;;;2.70;99.90;;;;;;5021506;28;20847;-80
2023/01/28 09:20:31;;;;;;;17.67;13.47;;;2.70;99.90;;;;;;5023261;28;20174;-80
2023/01/28 09:22:58;;;;;;;17.80;12.60;;;2.80;99.90;;;;;;5022166;28;20976;-79
2023/01/28 09:25:24;;;;;;;16.50;12.67;;;2.80;99.90;;;;;;5024440;28;20493;-79
2023/01/28 09:27:49;;;;;;;20.07;13.20;;;2.60;99.90;;;;;;5036565;28;20935;-79
2023/01/28 09:30:15;;;;;;;16.10;12.10;;;2.70;99.90;;;;;;5017556;28;20182;-80
2023/01/28 09:32:41;;;;;;;17.60;13.00;;;2.90;99.90;;;;;;5032491;28;20174;-79
2023/01/28 09:35:07;;;;;;;14.90;12.03;;;2.80;99.90;;;;;;5014785;28;20433;-79
2023/01/28 09:37:33;;;;;;;15.70;12.10;;;2.70;99.90;;;;;;5023985;28;20659;-80
2023/01/28 09:39:58;;;;;;;19.10;11.97;;;2.70;99.90;;;;;;5049630;28;20420;-80
2023/01/28 09:42:54;;;;;;;13.93;10.93;;;2.80;99.90;;;;;;5044758;28;20186;-80
2023/01/28 09:45:37;;;;;;;14.53;11.23;;;2.80;99.90;;;;;;5052766;28;20285;-79
2023/01/28 09:48:05;;;;;;;15.33;11.57;;;2.90;99.90;;;;;;5052848;28;20416;-79
2023/01/28 09:50:35;;;;;;;13.90;11.57;;;2.80;99.90;;;;;;5051639;28;20420;-79
2023/01/28 09:53:22;;;;;;;13.97;10.20;;;2.80;99.90;;;;;;5019142;28;20448;-79
2023/01/28 09:56:04;;;;;;;16.40;11.30;;;2.80;99.90;;;;;;5033027;28;20503;-79
2023/01/28 09:58:30;;;;;;;15.20;11.37;;;2.60;99.90;;;;;;5033660;28;20417;-79
2023/01/28 10:01:33;;;;;;;15.10;10.90;;;2.90;99.90;;;;;;5034001;28;21160;-81
2023/01/28 10:04:02;;;;;;;11.03;9.47;;;3.00;99.90;;;;;;4999029;28;20525;-82
2023/01/28 10:06:40;;;;;;;12.47;10.83;;;2.90;99.90;;;;;;4998744;28;20840;-82
2023/01/28 10:09:13;;;;;;;11.33;9.83;;;3.00;99.90;;;;;;5033712;28;20418;-86
2023/01/28 10:12:15;;;;;;;11.57;10.37;;;2.90;99.90;;;;;;5030761;23;21010;-89
2023/01/28 10:15:07;;;;;;;12.37;10.90;;;3.00;99.90;;;;;;5018754;28;20428;-88
2023/01/28 10:17:39;;;;;;;16.80;11.33;;;3.00;99.90;;;;;;5010084;28;20514;-87
2023/01/28 10:20:16;;;;;;;14.57;11.33;;;2.90;99.90;;;;;;5030946;28;20468;-87
2023/01/28 10:22:48;;;;;;;13.47;11.03;;;2.80;99.90;;;;;;5026614;28;20443;-86
2023/01/28 10:25:23;;;;;;;12.83;10.40;;;2.90;99.90;;;;;;5059699;22;20921;-77
2023/01/28 10:27:50;;;;;;;12.77;10.70;;;2.80;99.90;;;;;;5077945;28;20541;-75
2023/01/28 10:30:16;;;;;;;12.00;10.37;;;3.00;99.90;;;;;;5072438;28;20419;-75
2023/01/28 10:32:50;;;;;;;11.17;9.97;;;2.90;99.90;;;;;;5068005;28;20430;-76
2023/01/28 10:35:16;;;;;;;11.47;10.07;;;2.80;99.90;;;;;;5068231;28;20407;-75
2023/01/28 10:37:41;;;;;;;11.40;10.17;;;2.80;99.90;;;;;;5067186;28;20752;-76
2023/01/28 10:40:13;;;;;;;10.80;9.70;;;2.80;99.90;;;;;;5050692;28;20251;-76
2023/01/28 10:42:39;;;;;;;10.87;9.77;;;2.80;99.90;;;;;;5029665;28;20681;-76
2023/01/28 10:45:41;;;;;;;11.90;10.43;;;2.80;99.90;;;;;;5049397;28;20520;-76
2023/01/28 10:48:21;;;;;;;9.90;8.90;;;2.90;99.90;;;;;;4996642;28;20196;-75
2023/01/28 10:50:55;;;;;;;11.50;9.90;;;2.90;99.90;;;;;;5049676;28;20419;-75
2023/01/28 10:53:37;;;;;;;12.33;9.10;;;2.90;99.90;;;;;;5049037;28;20450;-75
2023/01/28 10:56:10;;;;;;;9.80;8.90;;;2.80;99.90;;;;;;5049385;28;20853;-76
2023/01/28 10:58:47;;;;;;;10.93;9.80;;;2.80;99.90;;;;;;5048964;28;20486;-75
2023/01/28 11:01:12;;;;;;;11.80;9.50;;;2.90;99.90;;;;;;5049261;28;20474;-76
2023/01/28 11:03:52;;;;;;;11.63;10.33;;;2.90;99.90;;;;;;5048969;28;20811;-76
2023/01/28 11:06:28;;;;;;;11.43;9.53;;;2.90;99.90;;;;;;5049150;28;20608;-76
2023/01/28 11:08:54;;;;;;;13.10;9.70;;;2.90;99.90;;;;;;5049193;28;20412;-75
2023/01/28 11:11:25;;;;;;;10.33;9.33;;;2.90;99.90;;;;;;5049538;28;20424;-75
2023/01/28 11:13:57;;;;;;;12.93;9.83;;;2.90;99.90;;;;;;5049364;28;20804;-75
2023/01/28 11:16:24;;;;;;;11.97;10.37;;;3.00;99.90;;;;;;5023415;28;20578;-76
2023/01/28 11:18:53;;;;;;;14.50;10.80;;;2.90;99.90;;;;;;5048796;28;20846;-76
2023/01/28 11:21:27;;;;;;;13.40;11.30;;;2.90;99.90;;;;;;5036326;28;20444;-76
2023/01/28 11:24:01;;;;;;;12.37;11.07;;;3.10;99.90;;;;;;5028979;28;20960;-76
2023/01/28 11:26:39;;;;;;;13.23;9.70;;;3.00;99.90;;;;;;5029562;28;20452;-75
2023/01/28 11:29:05;;;;;;;10.40;9.23;;;2.90;99.90;;;;;;5028746;28;20432;-76
2023/01/28 11:31:40;;;;;;;11.33;10.13;;;2.90;99.90;;;;;;4994788;28;20464;-76
2023/01/28 11:34:06;;;;;;;13.20;9.90;;;2.90;99.90;;;;;;5028578;28;20465;-74
2023/01/28 11:36:33;;;;;;;11.43;10.27;;;2.90;99.90;;;;;;5029082;28;20468;-76
2023/01/28 11:39:01;;;;;;;12.23;10.97;;;2.90;99.90;;;;;;5035571;28;20581;-78
2023/01/28 11:41:35;;;;;;;13.00;11.57;;;2.90;99.90;;;;;;5048418;28;20492;-76
2023/01/28 11:44:12;;;;;;;13.30;10.27;;;2.80;99.90;;;;;;5048379;28;20543;-75
2023/01/28 11:46:47;;;;;;;11.97;10.70;;;2.90;99.90;;;;;;5049134;28;20464;-75
2023/01/28 11:49:48;;;;;;;11.77;10.50;;;2.90;99.90;;;;;;5052086;28;20483;-78
2023/01/28 11:52:35;;;;;;;10.90;9.60;;;2.80;99.90;;;;;;4949283;28;20660;-78
2023/01/28 11:55:17;;;;;;;12.43;10.73;;;3.00;99.90;;;;;;5057787;28;20617;-78
2023/01/28 11:58:02;;;;;;;13.17;10.47;;;2.80;99.90;;;;;;5057100;28;20423;-78
2023/01/28 12:00:37;;;;;;;10.57;9.20;;;2.80;99.90;;;;;;5039032;28;20438;-78
2023/01/28 12:03:34;;;;;;;12.53;9.80;;;2.80;99.90;;;;;;5056149;28;20439;-78
2023/01/28 12:06:32;;;;;;;10.80;9.50;;;2.80;99.90;;;;;;5057244;28;20459;-78
2023/01/28 12:09:08;;;;;;;10.67;9.57;;;2.90;99.90;;;;;;5002569;28;20428;-78
2023/01/28 12:12:11;;;;;;;12.43;10.40;;;3.00;99.90;;;;;;5040014;28;20459;-77
2023/01/28 12:15:14;;;;;;;10.70;9.60;;;2.90;99.90;;;;;;5051168;28;20431;-77
2023/01/28 12:18:04;;;;;;;11.07;9.97;;;2.80;99.90;;;;;;5036434;28;20435;-77
2023/01/28 12:20:48;;;;;;;12.10;10.20;;;2.70;99.90;;;;;;5028875;28;20823;-77
2023/01/28 12:23:29;;;;;;;13.27;10.13;;;2.80;99.90;;;;;;5014289;28;20450;-77
2023/01/28 12:26:17;;;;;;;11.07;9.87;;;2.70;99.90;;;;;;5014773;28;20468;-76
2023/01/28 12:28:57;;;;;;;10.70;9.50;;;2.80;99.90;;;;;;5032446;28;20841;-76
2023/01/28 12:31:35;;;;;;;10.40;9.10;;;2.80;99.90;;;;;;5014775;28;20447;-75
2023/01/28 12:34:18;;;;;;;10.97;9.83;;;2.90;99.90;;;;;;5032282;28;20479;-76
2023/01/28 12:36:53;;;;;;;12.20;10.57;;;2.90;99.90;;;;;;5032244;28;20425;-77
2023/01/28 12:39:37;;;;;;;11.63;10.30;;;3.00;99.90;;;;;;5036411;28;20443;-77
2023/01/28 12:42:16;;;;;;;13.83;9.93;;;2.90;99.90;;;;;;5049195;28;20419;-79
2023/01/28 12:44:49;;;;;;;12.70;10.40;;;2.90;99.90;;;;;;5055438;28;20439;-77
2023/01/28 12:47:26;;;;;;;12.80;10.30;;;3.00;99.90;;;;;;5054859;28;21010;-76
2023/01/28 12:50:23;;;;;;;13.80;11.03;;;3.00;99.90;;;;;;5054758;28;20411;-74
2023/01/28 13:06:09;;;;;;;13.43;11.53;;;3.50;99.90;;;;;;4412745;22;20492;-78
2023/01/28 13:08:35;;;;;;;13.83;10.53;;;4.00;99.90;;;;;;5009346;28;20430;-79
2023/01/28 13:11:02;;;;;;;11.90;10.50;;;3.90;99.90;;;;;;5015849;28;20424;-78
2023/01/28 13:13:33;;;;;;;13.17;11.23;;;3.90;99.90;;;;;;5016386;28;20170;-80
2023/01/28 13:16:00;;;;;;;17.03;12.30;;;3.90;99.90;;;;;;5035111;28;20425;-79
2023/01/28 13:18:44;;;;;;;13.13;11.67;;;3.90;99.90;;;;;;5018211;28;20429;-78
2023/01/28 13:21:25;;;;;;;14.13;10.70;;;3.90;99.90;;;;;;5000566;28;20428;-78
2023/01/28 13:24:13;;;;;;;14.13;12.33;;;3.70;99.90;;;;;;5000717;28;20794;-80
2023/01/28 13:26:50;;;;;;;13.37;11.17;;;3.90;99.90;;;;;;5005555;28;20457;-77
2023/01/28 13:29:32;;;;;;;14.40;12.73;;;3.60;99.90;;;;;;5035197;28;20754;-79
2023/01/28 13:32:01;;;;;;;16.73;13.23;;;3.50;99.90;;;;;;5035347;28;20463;-80
2023/01/28 13:34:32;;;;;;;16.47;12.70;;;3.40;99.90;;;;;;5034614;28;20475;-78
2023/01/28 13:37:19;;;;;;;16.00;13.20;;;3.50;99.90;;;;;;5017604;28;20416;-79
2023/01/28 13:39:51;;;;;;;15.00;12.10;;;3.60;99.90;;;;;;5022620;28;20439;-80
2023/01/28 13:42:21;;;;;;;18.40;14.10;;;3.60;99.90;;;;;;5015295;28;20429;-79